NCAR-RAP Real-Time Weather Data

Output produced by METARs form (20 February 2019  18:07 UTC)
found at http://weather.rap.ucar.edu/surface/
 
RJCN 200900Z 03005KT 9999 FEW015 M02/M05 Q1014
RJCN 200800Z 02005KT 9999 FEW015 M01/M06 Q1014
RJCN 200700Z 02008KT 9999 FEW020 M01/M05 Q1014
RJCN 200600Z 02009KT 9999 FEW020 00/M05 Q1013
RJCN 200500Z 36011KT 330V030 9999 FEW020 01/M06 Q1012
RJCN 200400Z 35011KT 9999 FEW025 SCT150 03/M06 Q1012
RJCN 200300Z 35013KT 9999 FEW030 SCT050 04/M05 Q1012
RJCN 200200Z 36007KT 330V040 9999 FEW030 SCT050 BKN100 03/M06 Q1012
RJCN 200100Z 00000KT 9999 FEW030 SCT050 BKN100 03/M06 Q1012
RJCN 200000Z 25004KT 9999 FEW035 BKN100 01/M05 Q1012
RJCN 192330Z 25002KT 9999 FEW030 SCT050 BKN120 M01/M05 Q1012
RJCN 190900Z 33004KT 9999 FEW030 SCT130 BKN/// M03/M07 Q1017
RJCN 190800Z 26003KT 230V290 9999 FEW030 SCT140 BKN/// M05/M09 Q1017
RJCN 190700Z VRB02KT 9999 FEW030 SCT140 BKN/// M01/M08 Q1017
RJCN 190600Z 24003KT 190V300 9999 FEW030 SCT150 BKN/// 00/M06 Q1018
RJCN 190500Z 22004KT 9999 FEW030 SCT160 BKN/// 00/M06 Q1017
RJCN 190400Z 23007KT 9999 FEW040 BKN160 BKN/// M00/M06 Q1017
RJCN 190300Z 24007KT 9999 FEW030 SCT170 BKN/// M01/M06 Q1019
RJCN 190200Z 20008KT CAVOK M01/M08 Q1020
RJCN 190100Z 22005KT CAVOK M02/M08 Q1020
RJCN 190000Z 25007KT CAVOK M04/M09 Q1021
RJCN 182330Z 25009KT CAVOK M05/M09 Q1021
RJCN 180900Z 18004KT 9999 FEW025 M06/M10 Q1019
RJCN 180800Z 34007KT 9999 FEW025 M04/M10 Q1018
RJCN 180700Z 01006KT 9999 FEW015 SCT035 M03/M09 Q1018